Time;durP1;ratioP1;P1;durP2;ratioP2;P2;SDS_P1;SDS_P2;PMS_P1;PMS_P2;Temp;Humidity;BMP_temperature;BMP_pressure;BME280_temperature;BME280_humidity;BME280_pressure;Samples;Min_cycle;Max_cycle;Signal;HPM_P1;HPM_P2
2023/04/22 00:00:07;;;;;;;16.05;3.65;;;14.60;99.90;;;;;;7415440;19;19919;-80
2023/04/22 00:02:36;;;;;;;13.05;4.28;;;14.60;99.90;;;;;;7418192;19;19922;-80
2023/04/22 00:05:02;;;;;;;12.65;4.05;;;14.50;99.90;;;;;;7418731;19;19926;-81
2023/04/22 00:07:28;;;;;;;8.88;3.20;;;14.50;99.90;;;;;;7414812;19;19926;-80
2023/04/22 00:09:54;;;;;;;12.63;3.83;;;14.50;99.90;;;;;;7415890;19;19974;-79
2023/04/22 00:12:20;;;;;;;12.68;3.42;;;14.40;99.90;;;;;;7416530;19;19910;-80
2023/04/22 00:14:47;;;;;;;12.32;4.32;;;14.50;99.90;;;;;;7417574;19;19914;-80
2023/04/22 00:17:13;;;;;;;10.65;3.40;;;14.40;99.90;;;;;;7415849;19;19915;-80
2023/04/22 00:19:39;;;;;;;13.75;3.53;;;14.40;99.90;;;;;;7419080;19;19928;-82
2023/04/22 00:22:05;;;;;;;12.45;3.22;;;14.40;99.90;;;;;;7419380;19;19946;-80
2023/04/22 00:24:31;;;;;;;12.02;3.45;;;14.40;99.90;;;;;;7421644;19;19915;-80
2023/04/22 00:26:57;;;;;;;11.02;3.55;;;14.40;99.90;;;;;;7418776;19;19915;-80
2023/04/22 00:29:24;;;;;;;11.90;3.53;;;14.40;99.90;;;;;;7399368;19;19916;-81
2023/04/22 00:31:53;;;;;;;12.18;3.50;;;14.40;99.90;;;;;;7418368;19;20400;-81
2023/04/22 00:34:19;;;;;;;12.75;2.95;;;14.40;99.90;;;;;;7418190;19;19942;-81
2023/04/22 00:36:50;;;;;;;12.90;4.05;;;14.40;99.90;;;;;;7417434;19;19922;-80
2023/04/22 00:39:16;;;;;;;14.27;4.13;;;14.40;99.90;;;;;;7333980;19;19914;-80
2023/04/22 00:41:43;;;;;;;12.00;4.15;;;14.30;99.90;;;;;;7418688;19;19919;-81
2023/04/22 00:44:10;;;;;;;;;;;14.30;99.90;;;;;;7418832;19;19918;-81
2023/04/22 00:46:37;;;;;;;15.75;3.78;;;14.30;99.90;;;;;;7418674;19;19918;-80
2023/04/22 00:49:05;;;;;;;12.90;3.90;;;14.30;99.90;;;;;;7417041;19;19971;-80
2023/04/22 00:51:32;;;;;;;15.70;4.82;;;14.30;99.90;;;;;;7419701;19;19933;-81
2023/04/22 00:54:00;;;;;;;18.25;4.97;;;14.30;99.90;;;;;;7419802;19;19946;-81
2023/04/22 00:56:27;;;;;;;15.90;4.50;;;14.30;99.90;;;;;;7417968;19;19923;-80
2023/04/22 00:58:54;;;;;;;15.57;5.03;;;14.30;99.90;;;;;;7422022;19;20261;-79
2023/04/22 01:01:20;;;;;;;16.10;5.20;;;14.20;99.90;;;;;;7415971;19;19947;-80
2023/04/22 01:03:48;;;;;;;13.18;4.55;;;14.10;99.90;;;;;;7420530;19;19921;-81
2023/04/22 01:06:17;;;;;;;15.85;4.60;;;14.10;99.90;;;;;;7416772;19;19966;-80
2023/04/22 01:08:43;;;;;;;12.20;4.43;;;14.10;99.90;;;;;;7420020;19;19911;-81
2023/04/22 01:11:09;;;;;;;11.23;4.20;;;14.10;99.90;;;;;;7419762;19;19929;-80
2023/04/22 01:13:36;;;;;;;15.50;4.60;;;14.00;99.90;;;;;;7418521;19;19936;-81
2023/04/22 01:16:07;;;;;;;15.48;6.30;;;14.00;99.90;;;;;;7417080;19;20296;-80
2023/04/22 01:18:34;;;;;;;20.70;5.30;;;14.00;99.90;;;;;;7419269;19;19938;-80
2023/04/22 01:21:01;;;;;;;16.25;5.18;;;14.00;99.90;;;;;;7421472;19;19915;-80
2023/04/22 01:23:27;;;;;;;13.00;4.80;;;14.10;99.90;;;;;;7423322;19;19918;-82
2023/04/22 01:25:53;;;;;;;16.70;4.50;;;14.10;99.90;;;;;;7425108;19;19923;-80
2023/04/22 01:28:19;;;;;;;10.43;4.43;;;14.10;99.90;;;;;;7420736;19;19943;-80
2023/04/22 01:30:48;;;;;;;16.15;4.75;;;14.10;99.90;;;;;;7426242;19;19922;-80
2023/04/22 01:33:15;;;;;;;14.27;4.65;;;14.10;99.90;;;;;;7425142;19;19918;-80
2023/04/22 01:35:41;;;;;;;13.52;4.25;;;14.10;99.90;;;;;;7426506;19;19922;-79
2023/04/22 01:38:09;;;;;;;14.63;5.03;;;14.00;99.90;;;;;;7423224;19;19943;-81
2023/04/22 01:40:38;;;;;;;16.02;5.50;;;14.00;99.90;;;;;;7426532;19;19946;-80
2023/04/22 01:43:04;;;;;;;15.77;5.22;;;14.00;99.90;;;;;;7423174;19;19922;-80
2023/04/22 01:45:30;;;;;;;18.92;5.25;;;14.10;99.90;;;;;;7427296;19;19927;-80
2023/04/22 01:47:56;;;;;;;17.83;6.18;;;14.10;99.90;;;;;;7426722;19;19931;-81
2023/04/22 01:50:22;;;;;;;17.25;5.90;;;14.10;99.90;;;;;;7424782;19;19943;-81
2023/04/22 01:52:48;;;;;;;17.30;6.20;;;14.10;99.90;;;;;;7422720;19;20239;-80
2023/04/22 01:55:14;;;;;;;18.08;6.22;;;14.20;99.90;;;;;;7424401;19;19922;-79
2023/04/22 01:57:40;;;;;;;17.83;6.45;;;14.20;99.90;;;;;;7423800;19;19915;-80
2023/04/22 02:00:08;;;;;;;18.88;6.97;;;14.20;99.90;;;;;;7422448;19;19911;-81
2023/04/22 02:02:35;;;;;;;20.65;7.75;;;14.20;99.90;;;;;;7426220;19;20243;-80
2023/04/22 02:05:01;;;;;;;21.10;8.43;;;14.20;99.90;;;;;;7426097;19;19915;-80
2023/04/22 02:07:27;;;;;;;23.88;8.57;;;14.30;99.90;;;;;;7421707;19;20049;-80
2023/04/22 02:09:53;;;;;;;18.10;7.43;;;14.30;99.90;;;;;;7425062;19;19978;-81
2023/04/22 02:12:19;;;;;;;28.20;9.13;;;14.30;99.90;;;;;;7424312;19;20014;-80
2023/04/22 02:14:44;;;;;;;28.23;10.20;;;14.30;99.90;;;;;;7422993;19;19914;-80
2023/04/22 02:17:10;;;;;;;28.58;11.98;;;14.30;99.90;;;;;;7420859;19;19938;-80
2023/04/22 02:19:37;;;;;;;29.33;11.60;;;14.30;99.90;;;;;;7422319;19;19921;-80
2023/04/22 02:22:03;;;;;;;30.33;12.25;;;14.30;99.90;;;;;;7422327;19;19934;-80
2023/04/22 02:24:29;;;;;;;27.50;12.52;;;14.40;99.90;;;;;;7422845;19;19954;-80
2023/04/22 02:26:55;;;;;;;28.85;12.88;;;14.30;99.90;;;;;;7422828;19;19918;-80
2023/04/22 02:29:21;;;;;;;29.95;13.00;;;14.30;99.90;;;;;;7420915;19;19918;-80
2023/04/22 02:31:46;;;;;;;33.00;13.05;;;14.30;99.90;;;;;;7424563;19;19959;-79
2023/04/22 02:34:12;;;;;;;24.70;12.15;;;14.30;99.90;;;;;;7419551;19;19914;-81
2023/04/22 02:36:38;;;;;;;26.25;12.13;;;14.30;99.90;;;;;;7425083;19;19918;-80
2023/04/22 02:39:04;;;;;;;24.85;13.02;;;14.30;99.90;;;;;;7418846;19;19918;-80
2023/04/22 02:41:31;;;;;;;25.52;13.45;;;14.30;99.90;;;;;;7421818;19;20353;-80
2023/04/22 02:43:56;;;;;;;26.45;11.50;;;14.30;99.90;;;;;;7420827;19;19995;-80
2023/04/22 02:46:22;;;;;;;24.23;11.13;;;14.20;99.90;;;;;;7421296;19;19943;-80
2023/04/22 02:48:48;;;;;;;28.25;11.55;;;14.20;99.90;;;;;;7422683;19;19922;-80
2023/04/22 02:51:15;;;;;;;26.25;10.75;;;14.20;99.90;;;;;;7423530;19;19922;-80
2023/04/22 02:53:41;;;;;;;26.55;10.30;;;14.20;99.90;;;;;;7424832;19;19910;-80
2023/04/22 02:56:08;;;;;;;26.88;11.93;;;14.30;99.90;;;;;;7423623;19;19918;-80
2023/04/22 02:58:34;;;;;;;22.42;9.57;;;14.40;99.90;;;;;;7424027;19;19928;-80
2023/04/22 03:01:00;;;;;;;26.63;11.10;;;14.50;99.90;;;;;;7367120;19;19918;-81
2023/04/22 03:03:25;;;;;;;22.27;8.85;;;14.60;99.90;;;;;;7419427;19;19928;-80
2023/04/22 03:05:51;;;;;;;25.08;8.32;;;14.70;99.90;;;;;;7420661;19;19952;-81
2023/04/22 03:08:18;;;;;;;23.10;8.75;;;14.70;99.90;;;;;;7420902;19;19935;-81
2023/04/22 03:10:46;;;;;;;21.88;9.77;;;14.80;99.90;;;;;;7423758;19;19925;-80
2023/04/22 03:13:13;;;;;;;24.35;9.23;;;14.80;99.90;;;;;;7421156;19;19923;-81
2023/04/22 03:15:41;;;;;;;20.77;8.52;;;14.70;99.90;;;;;;7421921;19;19914;-80
2023/04/22 03:18:07;;;;;;;18.65;7.55;;;14.80;99.90;;;;;;7421396;19;19943;-81
2023/04/22 03:20:34;;;;;;;18.42;6.88;;;14.80;99.90;;;;;;7425801;19;19929;-80
2023/04/22 03:23:02;;;;;;;23.05;7.00;;;14.90;99.90;;;;;;7424430;19;19918;-80
2023/04/22 03:25:28;;;;;;;20.08;6.78;;;14.90;99.90;;;;;;7411252;19;19923;-81
2023/04/22 03:27:54;;;;;;;20.05;6.88;;;14.90;99.90;;;;;;7425667;19;19918;-80
2023/04/22 03:30:20;;;;;;;22.30;7.25;;;15.00;99.90;;;;;;7421018;19;19918;-80
2023/04/22 03:32:46;;;;;;;19.58;8.23;;;15.00;99.90;;;;;;7424078;19;20329;-81
2023/04/22 03:35:12;;;;;;;24.35;8.50;;;15.10;99.90;;;;;;7380017;19;19922;-81
2023/04/22 03:37:39;;;;;;;23.60;7.57;;;15.10;99.90;;;;;;7425126;19;19919;-80
2023/04/22 03:40:06;;;;;;;22.75;7.63;;;15.10;99.90;;;;;;7422580;19;20121;-81
2023/04/22 03:42:32;;;;;;;17.45;8.02;;;15.10;99.90;;;;;;7423067;19;19928;-81
2023/04/22 03:44:58;;;;;;;14.25;5.72;;;15.10;99.90;;;;;;7421970;19;20539;-81
2023/04/22 03:47:24;;;;;;;17.80;5.43;;;15.00;99.90;;;;;;7420621;19;19935;-81
2023/04/22 03:49:49;;;;;;;16.85;5.95;;;15.00;99.90;;;;;;7421287;19;19926;-81
2023/04/22 03:52:15;;;;;;;18.17;7.07;;;15.00;99.90;;;;;;7423630;19;19910;-80
2023/04/22 03:54:41;;;;;;;24.23;5.75;;;15.00;99.90;;;;;;7423414;19;19919;-81
2023/04/22 03:57:07;;;;;;;19.08;6.60;;;14.90;99.90;;;;;;7421460;19;19914;-80
2023/04/22 03:59:32;;;;;;;21.27;6.25;;;14.90;99.90;;;;;;7422269;19;19931;-81
2023/04/22 04:01:58;;;;;;;20.25;7.32;;;14.80;99.90;;;;;;7423901;19;19997;-81
2023/04/22 04:04:24;;;;;;;21.58;7.47;;;14.80;99.90;;;;;;7417781;19;19921;-81
2023/04/22 04:06:50;;;;;;;21.08;7.93;;;14.70;99.90;;;;;;7418107;19;19915;-81
2023/04/22 04:09:17;;;;;;;19.80;7.45;;;14.60;99.90;;;;;;7420938;19;20262;-80
2023/04/22 04:11:42;;;;;;;20.65;6.45;;;14.60;99.90;;;;;;7422237;19;19917;-81
2023/04/22 04:14:08;;;;;;;17.02;6.35;;;14.50;99.90;;;;;;7417282;19;19933;-82
2023/04/22 04:16:34;;;;;;;19.23;6.90;;;14.40;99.90;;;;;;7422693;19;19922;-80
2023/04/22 04:19:00;;;;;;;19.40;6.43;;;14.40;99.90;;;;;;7423475;19;19922;-82
2023/04/22 04:21:25;;;;;;;23.15;6.82;;;14.30;99.90;;;;;;7418773;19;19927;-81
2023/04/22 04:23:51;;;;;;;15.50;7.15;;;14.30;99.90;;;;;;7420849;19;19926;-80
2023/04/22 04:26:19;;;;;;;23.75;7.75;;;14.20;99.90;;;;;;7418517;19;19911;-81
2023/04/22 04:28:46;;;;;;;19.15;6.65;;;14.10;99.90;;;;;;7420721;19;19911;-81
2023/04/22 04:31:11;;;;;;;;;;;14.10;99.90;;;;;;7381514;19;19934;-80
2023/04/22 04:33:38;;;;;;;18.02;5.45;;;14.00;99.90;;;;;;7369779;19;19922;-81
2023/04/22 04:36:04;;;;;;;14.77;6.43;;;14.00;99.90;;;;;;7415994;19;20327;-81
2023/04/22 04:38:30;;;;;;;17.65;5.75;;;14.00;99.90;;;;;;7400493;19;19910;-82
2023/04/22 04:40:57;;;;;;;18.92;6.40;;;13.90;99.90;;;;;;7420324;19;20359;-82
2023/04/22 04:43:24;;;;;;;23.35;5.80;;;14.00;99.90;;;;;;7420421;19;19948;-81
2023/04/22 04:45:51;;;;;;;20.10;6.25;;;13.90;99.90;;;;;;7383755;19;20334;-81
2023/04/22 04:48:18;;;;;;;19.27;6.32;;;13.90;99.90;;;;;;7420636;19;19959;-81
2023/04/22 04:50:46;;;;;;;18.13;5.55;;;13.90;99.90;;;;;;7423783;19;19938;-81
2023/04/22 04:53:12;;;;;;;15.38;5.22;;;13.90;99.90;;;;;;7421157;19;19923;-80
2023/04/22 04:55:38;;;;;;;11.95;5.25;;;13.90;99.90;;;;;;7421102;19;19923;-80
2023/04/22 04:58:04;;;;;;;16.08;5.57;;;13.90;99.90;;;;;;7422616;19;19939;-82
2023/04/22 05:00:30;;;;;;;15.70;5.60;;;13.90;99.90;;;;;;7427700;19;19919;-81
2023/04/22 05:02:57;;;;;;;19.05;5.32;;;13.80;99.90;;;;;;7406133;19;19934;-80
2023/04/22 05:05:23;;;;;;;;;;;13.80;99.90;;;;;;7402522;19;19929;-80
2023/04/22 05:07:50;;;;;;;17.60;5.63;;;13.80;99.90;;;;;;7427435;19;19915;-81
2023/04/22 05:10:16;;;;;;;;;;;13.80;99.90;;;;;;7428699;19;19919;-80
2023/04/22 05:12:45;;;;;;;16.20;5.90;;;13.80;99.90;;;;;;7425364;19;19910;-81
2023/04/22 05:15:11;;;;;;;16.85;5.53;;;13.80;99.90;;;;;;7424141;19;19967;-81
2023/04/22 05:17:36;;;;;;;16.40;6.53;;;13.80;99.90;;;;;;7395061;19;19918;-81
2023/04/22 05:20:03;;;;;;;20.02;6.20;;;13.80;99.90;;;;;;7426829;19;19910;-82
2023/04/22 05:22:29;;;;;;;16.33;6.70;;;13.80;99.90;;;;;;7428116;19;19907;-81
2023/04/22 05:24:55;;;;;;;18.13;6.15;;;13.90;99.90;;;;;;7383232;19;19918;-81
2023/04/22 05:27:21;;;;;;;18.52;6.63;;;13.90;99.90;;;;;;7419515;19;19915;-81
2023/04/22 05:29:47;;;;;;;17.55;7.15;;;13.90;99.90;;;;;;7426344;19;19922;-80
2023/04/22 05:32:14;;;;;;;;;;;13.90;99.90;;;;;;7383362;19;19914;-81
2023/04/22 05:34:40;;;;;;;21.05;6.18;;;14.00;99.90;;;;;;7380199;19;19925;-81
2023/04/22 05:37:07;;;;;;;15.52;6.75;;;14.00;99.90;;;;;;7423267;19;19917;-81
2023/04/22 05:39:34;;;;;;;;;;;14.00;99.90;;;;;;7426517;19;20291;-81
2023/04/22 05:42:01;;;;;;;17.17;6.68;;;14.10;99.90;;;;;;7425310;19;19938;-81
2023/04/22 05:44:27;;;;;;;16.05;6.38;;;14.10;99.90;;;;;;7402376;19;19974;-80
2023/04/22 05:46:53;;;;;;;20.08;7.38;;;14.20;99.90;;;;;;7425924;19;19923;-82
2023/04/22 05:49:19;;;;;;;25.33;7.43;;;14.20;99.90;;;;;;7368802;19;19925;-82
2023/04/22 05:51:45;;;;;;;16.42;6.90;;;14.30;99.90;;;;;;7422307;19;19935;-81
2023/04/22 05:54:10;;;;;;;19.27;6.82;;;14.40;99.90;;;;;;7400999;19;19917;-80
2023/04/22 05:56:36;;;;;;;18.02;6.70;;;14.40;99.90;;;;;;7425544;19;19919;-81
2023/04/22 05:59:02;;;;;;;17.40;7.32;;;14.40;99.90;;;;;;7426709;19;19975;-81
2023/04/22 06:01:28;;;;;;;14.88;6.88;;;14.50;99.90;;;;;;7375126;19;19978;-81
2023/04/22 06:03:54;;;;;;;19.83;7.03;;;14.50;99.90;;;;;;7403662;19;19918;-82
2023/04/22 06:06:21;;;;;;;23.70;8.02;;;14.50;99.90;;;;;;7423741;19;20358;-81
2023/04/22 06:08:47;;;;;;;17.60;7.35;;;14.60;99.90;;;;;;7399253;19;19990;-81
2023/04/22 06:11:13;;;;;;;22.23;7.38;;;14.60;99.90;;;;;;7424621;19;19938;-80
2023/04/22 06:13:38;;;;;;;20.20;7.95;;;14.70;99.90;;;;;;7427017;19;19934;-81
2023/04/22 06:16:05;;;;;;;22.45;7.65;;;14.80;99.90;;;;;;7403281;19;19921;-82
2023/04/22 06:18:31;;;;;;;15.70;6.88;;;14.80;99.90;;;;;;7422983;19;20407;-81
2023/04/22 06:20:58;;;;;;;22.30;7.72;;;14.90;99.90;;;;;;7425314;19;19911;-81
2023/04/22 06:23:25;;;;;;;15.85;6.63;;;15.10;99.90;;;;;;7424302;19;19938;-82
2023/04/22 06:25:51;;;;;;;23.48;7.88;;;15.20;99.90;;;;;;7423929;19;19938;-81
2023/04/22 06:28:17;;;;;;;18.35;7.38;;;15.30;99.90;;;;;;7423740;19;20537;-81
2023/04/22 06:30:44;;;;;;;18.80;7.22;;;15.40;99.90;;;;;;7425085;19;20436;-81
2023/04/22 06:33:10;;;;;;;18.70;6.75;;;15.50;99.90;;;;;;7400603;19;19922;-79
2023/04/22 06:35:36;;;;;;;15.50;5.68;;;15.50;99.90;;;;;;7425160;19;19915;-82
2023/04/22 06:38:01;;;;;;;23.38;6.32;;;15.60;99.90;;;;;;7423190;19;19910;-82
2023/04/22 06:40:27;;;;;;;14.90;5.68;;;15.70;99.90;;;;;;7423097;19;19910;-82
2023/04/22 06:42:56;;;;;;;21.33;6.40;;;15.70;99.90;;;;;;7404441;19;19911;-82
2023/04/22 06:45:22;;;;;;;25.85;7.88;;;15.80;99.90;;;;;;7425184;19;19918;-81
2023/04/22 06:47:48;;;;;;;19.98;7.50;;;15.70;99.90;;;;;;7423007;19;19970;-82
2023/04/22 06:50:13;;;;;;;21.10;7.75;;;15.70;99.90;;;;;;7423223;19;20303;-81
2023/04/22 06:52:39;;;;;;;17.50;6.75;;;15.60;99.90;;;;;;7424591;19;19926;-81
2023/04/22 06:55:05;;;;;;;17.90;6.93;;;15.70;99.90;;;;;;7424151;19;19914;-81
2023/04/22 06:57:32;;;;;;;;;;;15.70;99.90;;;;;;7430079;19;19924;-81
2023/04/22 06:59:58;;;;;;;16.40;6.43;;;15.80;99.90;;;;;;7427878;19;19906;-81
2023/04/22 07:02:24;;;;;;;16.67;6.55;;;15.90;99.90;;;;;;7422272;19;19919;-80
2023/04/22 07:04:51;;;;;;;19.83;5.90;;;16.00;99.90;;;;;;7404974;19;19911;-80
2023/04/22 07:07:17;;;;;;;15.23;6.65;;;16.00;99.90;;;;;;7367483;19;20338;-81
2023/04/22 07:09:43;;;;;;;15.95;5.88;;;16.10;99.90;;;;;;7423361;19;20363;-84
2023/04/22 07:12:08;;;;;;;15.15;6.20;;;16.20;99.90;;;;;;7389067;19;19921;-84
2023/04/22 07:14:34;;;;;;;25.05;5.20;;;16.20;99.90;;;;;;7422557;19;19922;-82
2023/04/22 07:17:01;;;;;;;14.18;4.88;;;16.30;99.90;;;;;;7422872;19;19915;-80
2023/04/22 07:19:29;;;;;;;15.43;5.38;;;16.30;99.90;;;;;;7397172;19;19925;-81
2023/04/22 07:21:54;;;;;;;13.90;5.45;;;16.40;99.90;;;;;;7421998;19;20327;-81
2023/04/22 07:24:20;;;;;;;16.45;5.82;;;16.50;99.90;;;;;;7399583;19;19919;-82
2023/04/22 07:26:46;;;;;;;17.13;5.35;;;16.60;99.90;;;;;;7422529;19;19919;-81
2023/04/22 07:29:12;;;;;;;13.65;4.75;;;16.60;99.90;;;;;;7422013;19;19919;-81
2023/04/22 07:31:38;;;;;;;15.45;5.50;;;16.60;99.90;;;;;;7423736;19;19914;-81
2023/04/22 07:34:03;;;;;;;13.70;4.30;;;16.70;99.90;;;;;;7402893;19;19919;-83
2023/04/22 07:36:31;;;;;;;12.73;3.25;;;16.90;99.90;;;;;;7419463;19;19923;-81
2023/04/22 07:38:57;;;;;;;12.63;3.03;;;17.00;99.90;;;;;;7421642;19;19915;-80
2023/04/22 07:41:23;;;;;;;8.95;2.20;;;17.10;99.90;;;;;;7421303;19;19934;-82
2023/04/22 07:43:50;;;;;;;10.55;2.20;;;17.10;99.50;;;;;;7423416;19;19910;-81
2023/04/22 07:46:16;;;;;;;9.95;2.92;;;17.10;99.60;;;;;;7419303;19;19914;-83
2023/04/22 07:48:42;;;;;;;10.52;3.03;;;17.20;99.20;;;;;;7397948;19;19919;-83
2023/04/22 07:51:08;;;;;;;12.38;3.28;;;17.30;99.10;;;;;;7398519;19;20350;-83
2023/04/22 07:53:34;;;;;;;12.77;2.60;;;17.30;98.70;;;;;;7424635;19;19915;-82
2023/04/22 07:56:01;;;;;;;12.48;2.83;;;17.20;99.00;;;;;;7421748;19;19918;-82
2023/04/22 07:58:27;;;;;;;9.30;2.20;;;17.20;98.90;;;;;;7420266;19;19911;-82
2023/04/22 08:00:53;;;;;;;10.02;2.95;;;17.20;99.10;;;;;;7392397;19;19934;-82
2023/04/22 08:03:19;;;;;;;10.90;2.50;;;17.50;98.80;;;;;;7418057;19;19926;-82
2023/04/22 08:05:45;;;;;;;13.35;2.80;;;17.50;98.50;;;;;;7422702;19;19921;-82
2023/04/22 08:08:12;;;;;;;15.48;3.03;;;17.80;98.10;;;;;;7391535;19;19918;-81
2023/04/22 08:10:37;;;;;;;13.02;2.95;;;17.80;97.50;;;;;;7424122;19;19975;-82
2023/04/22 08:13:03;;;;;;;9.23;2.53;;;17.60;97.60;;;;;;7427323;19;19918;-80
2023/04/22 08:15:29;;;;;;;9.18;2.30;;;17.70;98.00;;;;;;7423479;19;19939;-80
2023/04/22 08:17:55;;;;;;;10.40;2.80;;;17.90;97.60;;;;;;7426393;19;19943;-80
2023/04/22 08:20:21;;;;;;;9.02;2.67;;;17.90;97.40;;;;;;7423590;19;20040;-82
2023/04/22 08:22:50;;;;;;;10.55;2.42;;;17.90;97.50;;;;;;7426147;19;19918;-82
2023/04/22 08:25:16;;;;;;;13.98;3.30;;;18.00;97.40;;;;;;7424265;19;20386;-81
2023/04/22 08:27:42;;;;;;;12.10;2.75;;;18.10;96.90;;;;;;7402880;19;19919;-81
2023/04/22 08:30:09;;;;;;;13.65;3.25;;;18.20;96.80;;;;;;7423739;19;19907;-82
2023/04/22 08:32:35;;;;;;;10.75;2.70;;;18.10;96.50;;;;;;7425109;19;19917;-80
2023/04/22 08:35:01;;;;;;;13.52;3.00;;;18.40;96.30;;;;;;7404670;19;19914;-81
2023/04/22 08:37:28;;;;;;;10.88;2.63;;;19.80;94.20;;;;;;7401935;19;20015;-81
2023/04/22 08:39:54;;;;;;;12.45;3.42;;;20.60;92.20;;;;;;7403311;19;20322;-81
2023/04/22 08:42:21;;;;;;;12.38;3.47;;;20.80;90.00;;;;;;7424936;19;19929;-82
2023/04/22 08:44:48;;;;;;;11.43;3.05;;;21.40;89.50;;;;;;7422608;19;19950;-80
2023/04/22 08:47:15;;;;;;;15.02;3.80;;;21.30;89.10;;;;;;7423868;19;19911;-81
2023/04/22 08:49:42;;;;;;;12.98;3.65;;;22.00;87.10;;;;;;7423687;19;19923;-82
2023/04/22 08:52:10;;;;;;;9.73;3.17;;;22.40;85.40;;;;;;7386445;19;19929;-81
2023/04/22 08:54:46;;;;;;;15.18;4.20;;;21.70;84.60;;;;;;7400293;19;19915;-82
2023/04/22 08:57:14;;;;;;;10.23;3.42;;;22.10;83.70;;;;;;7414765;19;19930;-80
2023/04/22 08:59:40;;;;;;;15.15;4.03;;;23.00;83.10;;;;;;7425321;19;19911;-82
2023/04/22 09:02:16;;;;;;;12.48;3.45;;;22.70;82.20;;;;;;7420201;19;19922;-81
2023/04/22 09:04:45;;;;;;;15.80;3.67;;;21.30;84.40;;;;;;7425463;19;19922;-81
2023/04/22 09:07:14;;;;;;;9.52;3.08;;;22.50;82.80;;;;;;7419587;19;19922;-81
2023/04/22 09:09:43;;;;;;;11.82;4.22;;;23.00;80.70;;;;;;7423395;19;19919;-82
2023/04/22 09:12:10;;;;;;;12.02;3.08;;;23.40;79.90;;;;;;7421695;19;19921;-81
2023/04/22 09:14:36;;;;;;;;;;;22.70;81.50;;;;;;7425591;19;19922;-81
2023/04/22 09:17:02;;;;;;;9.70;3.33;;;22.20;82.20;;;;;;7391786;19;19930;-82
2023/04/22 09:19:29;;;;;;;12.45;3.25;;;21.80;83.30;;;;;;7422576;19;19974;-81
2023/04/22 09:21:58;;;;;;;10.02;3.47;;;22.30;81.70;;;;;;7390059;19;19925;-81
2023/04/22 09:24:24;;;;;;;10.65;2.72;;;22.00;82.40;;;;;;7397654;19;19949;-81
2023/04/22 09:26:50;;;;;;;12.25;2.47;;;21.70;81.00;;;;;;7424851;19;19923;-82
2023/04/22 09:29:16;;;;;;;12.40;3.30;;;22.60;79.60;;;;;;7421500;19;20595;-82
2023/04/22 09:31:48;;;;;;;8.77;2.47;;;22.60;78.90;;;;;;7403323;19;19925;-82
2023/04/22 09:34:15;;;;;;;12.55;3.08;;;22.20;78.20;;;;;;7421572;19;19923;-83
2023/04/22 09:36:42;;;;;;;13.32;3.05;;;22.40;78.90;;;;;;7422702;19;20613;-83
2023/04/22 09:39:13;;;;;;;10.63;2.80;;;22.30;79.50;;;;;;7420072;19;19915;-81
2023/04/22 09:41:39;;;;;;;11.38;2.80;;;21.60;79.50;;;;;;7423393;19;19918;-80
2023/04/22 09:44:26;;;;;;;;;;;21.80;80.20;;;;;;7430925;19;19915;-81
2023/04/22 09:46:53;;;;;;;10.93;2.70;;;21.50;81.30;;;;;;7407925;19;19926;-80
2023/04/22 09:49:20;;;;;;;12.15;2.92;;;21.40;81.90;;;;;;7426303;19;20010;-82
2023/04/22 09:51:45;;;;;;;11.77;3.05;;;22.50;79.50;;;;;;7427571;19;19915;-82
2023/04/22 09:54:11;;;;;;;10.02;2.42;;;22.30;78.70;;;;;;7428868;19;19918;-81
2023/04/22 09:56:51;;;;;;;8.02;2.67;;;21.90;79.40;;;;;;7426308;19;19915;-81
2023/04/22 09:59:28;;;;;;;9.82;2.80;;;21.10;80.50;;;;;;7427431;19;19923;-81
2023/04/22 10:02:03;;;;;;;9.57;2.60;;;21.40;81.60;;;;;;7430656;19;19914;-82
2023/04/22 10:04:30;;;;;;;9.25;2.90;;;21.70;81.00;;;;;;7392941;19;19915;-81
2023/04/22 10:06:55;;;;;;;10.20;2.47;;;20.90;82.20;;;;;;7429457;19;19939;-81
2023/04/22 10:09:23;;;;;;;11.57;3.10;;;21.20;81.00;;;;;;7424513;19;19923;-80
2023/04/22 10:11:52;;;;;;;11.93;3.25;;;22.00;79.80;;;;;;7427498;19;19930;-81
2023/04/22 10:14:20;;;;;;;8.63;2.58;;;21.80;79.90;;;;;;7426723;19;19937;-82
2023/04/22 10:16:48;;;;;;;11.23;2.83;;;22.10;78.70;;;;;;7396892;19;19918;-83
2023/04/22 10:19:22;;;;;;;15.25;2.92;;;22.30;79.40;;;;;;7377146;19;19982;-81
2023/04/22 10:22:01;;;;;;;9.57;2.42;;;21.10;80.40;;;;;;7429063;19;19915;-81
2023/04/22 10:24:33;;;;;;;13.68;3.65;;;21.10;81.30;;;;;;7428439;19;20325;-81
2023/04/22 10:27:05;;;;;;;11.15;2.80;;;21.40;82.20;;;;;;7374903;19;19911;-81
2023/04/22 10:29:39;;;;;;;8.85;2.45;;;21.50;81.80;;;;;;7406338;19;19923;-81
2023/04/22 10:32:20;;;;;;;8.10;2.35;;;21.40;80.90;;;;;;7427292;19;19903;-81
2023/04/22 10:34:48;;;;;;;9.90;3.67;;;21.70;80.90;;;;;;7429165;19;19915;-84
2023/04/22 10:37:17;;;;;;;10.20;2.53;;;21.60;80.30;;;;;;7424660;19;19910;-83
2023/04/22 10:40:10;;;;;;;11.02;2.53;;;21.20;80.70;;;;;;7430164;19;19915;-81
2023/04/22 10:42:41;;;;;;;10.30;2.60;;;21.80;79.50;;;;;;7424461;19;19910;-80
2023/04/22 10:45:13;;;;;;;11.30;2.45;;;21.40;80.20;;;;;;7427001;19;19930;-82
2023/04/22 10:47:40;;;;;;;8.88;2.78;;;21.20;80.10;;;;;;7427921;19;19918;-82
2023/04/22 10:50:20;;;;;;;9.90;1.85;;;20.80;80.70;;;;;;7422970;19;19914;-83
2023/04/22 10:52:49;;;;;;;9.88;2.15;;;21.50;78.80;;;;;;7426503;19;19923;-81
2023/04/22 10:55:15;;;;;;;10.50;2.53;;;21.60;80.30;;;;;;7427060;19;20000;-84
2023/04/22 10:57:48;;;;;;;9.40;2.70;;;21.80;79.80;;;;;;7428552;19;20713;-82
2023/04/22 11:00:56;;;;;;;11.13;2.70;;;22.40;78.40;;;;;;7423745;19;19955;-81
2023/04/22 11:03:26;;;;;;;;;;;21.70;77.60;;;;;;7425813;19;19978;-83
2023/04/22 11:06:14;;;;;;;11.57;2.75;;;22.60;76.80;;;;;;7425778;19;19919;-82
2023/04/22 11:08:44;;;;;;;8.55;2.47;;;22.30;78.10;;;;;;7421253;19;19919;-82
2023/04/22 11:11:12;;;;;;;11.88;3.35;;;22.00;78.30;;;;;;7425730;19;19926;-83
2023/04/22 11:13:41;;;;;;;9.15;2.90;;;22.60;78.60;;;;;;7419138;19;19923;-81
2023/04/22 11:16:08;;;;;;;11.23;2.83;;;23.50;76.20;;;;;;7417445;19;19914;-82
2023/04/22 11:18:35;;;;;;;10.13;2.67;;;22.80;75.80;;;;;;7387998;19;19918;-72
2023/04/22 11:21:06;;;;;;;9.65;2.70;;;23.30;76.20;;;;;;7365358;19;19938;-74
2023/04/22 11:23:31;;;;;;;11.00;2.80;;;23.00;77.30;;;;;;7395734;19;19913;-75
2023/04/22 11:26:02;;;;;;;10.77;3.22;;;22.30;77.60;;;;;;7398770;19;19919;-74
2023/04/22 11:28:28;;;;;;;9.38;2.35;;;22.50;78.40;;;;;;7390854;19;19914;-74
2023/04/22 11:31:20;;;;;;;11.93;3.35;;;23.20;76.30;;;;;;7394689;19;19922;-73
2023/04/22 11:33:46;;;;;;;12.45;3.50;;;23.00;76.90;;;;;;7395926;19;20276;-74
2023/04/22 11:36:14;;;;;;;12.57;2.97;;;23.00;76.50;;;;;;7393096;19;19918;-74
2023/04/22 11:38:40;;;;;;;10.85;3.40;;;22.80;78.40;;;;;;7401829;19;19918;-74
2023/04/22 11:41:06;;;;;;;12.82;3.17;;;23.00;77.70;;;;;;7400162;19;19928;-74
2023/04/22 11:43:32;;;;;;;16.20;3.10;;;23.00;77.60;;;;;;7401203;19;20422;-75
2023/04/22 11:45:57;;;;;;;13.27;3.13;;;22.40;78.70;;;;;;7400270;19;19933;-74
2023/04/22 11:48:23;;;;;;;9.90;3.10;;;21.90;81.30;;;;;;7395098;19;19918;-73
2023/04/22 11:51:05;;;;;;;10.10;2.63;;;22.50;79.00;;;;;;7391613;19;19984;-74
2023/04/22 11:53:31;;;;;;;9.88;2.72;;;21.80;79.00;;;;;;7398435;19;20000;-73
2023/04/22 11:55:57;;;;;;;12.60;2.78;;;21.90;79.80;;;;;;7395763;19;19915;-73
2023/04/22 11:58:27;;;;;;;11.52;3.25;;;22.30;80.00;;;;;;7397098;19;19931;-73
2023/04/22 12:00:53;;;;;;;8.63;3.38;;;22.80;78.80;;;;;;7404897;19;19918;-73
2023/04/22 12:03:25;;;;;;;11.30;3.28;;;23.60;76.60;;;;;;7395724;19;19951;-74
2023/04/22 12:06:02;;;;;;;6.70;2.50;;;24.40;72.70;;;;;;7400390;19;19926;-73
2023/04/22 12:08:32;;;;;;;9.73;3.55;;;24.20;71.60;;;;;;7394386;19;19914;-74
2023/04/22 12:11:05;;;;;;;11.52;2.92;;;24.50;72.10;;;;;;7395549;19;19922;-74
2023/04/22 12:13:44;;;;;;;10.60;3.20;;;23.20;74.20;;;;;;7400197;19;19922;-74
2023/04/22 12:16:19;;;;;;;14.32;3.45;;;23.70;74.30;;;;;;7393575;19;19970;-74
2023/04/22 12:18:49;;;;;;;12.77;3.65;;;23.90;75.40;;;;;;7393343;19;20404;-75
2023/04/22 12:21:18;;;;;;;11.48;3.08;;;24.60;74.70;;;;;;7378177;19;19978;-71
2023/04/22 12:23:47;;;;;;;13.57;3.30;;;24.70;73.90;;;;;;7401656;19;19919;-74
2023/04/22 12:26:14;;;;;;;12.35;3.33;;;24.70;73.90;;;;;;7369439;19;19923;-72
2023/04/22 12:28:41;;;;;;;10.43;3.33;;;24.40;74.40;;;;;;7399076;19;19930;-72
2023/04/22 12:31:08;;;;;;;11.57;3.50;;;23.80;75.30;;;;;;7399321;19;19915;-71
2023/04/22 12:33:35;;;;;;;9.43;3.25;;;24.50;73.60;;;;;;7399705;19;19920;-72
2023/04/22 12:36:01;;;;;;;12.75;4.00;;;22.80;75.70;;;;;;7394285;19;19906;-70
2023/04/22 12:38:27;;;;;;;10.73;2.95;;;23.00;76.90;;;;;;7386626;19;19928;-71
2023/04/22 12:40:53;;;;;;;;;;;22.10;78.00;;;;;;7386020;19;20255;-72